sensor_id;sensor_type;location;lat;lon;timestamp;P1;durP1;ratioP1;P2;durP2;ratioP2
20482;SDS011;10400;53.198;6.592;2022-10-23T00:00:33;15.32;;;6.03;;
20482;SDS011;10400;53.198;6.592;2022-10-23T00:02:58;14.43;;;6.10;;
20482;SDS011;10400;53.198;6.592;2022-10-23T00:05:24;11.02;;;6.20;;
20482;SDS011;10400;53.198;6.592;2022-10-23T00:07:52;13.82;;;6.35;;
20482;SDS011;10400;53.198;6.592;2022-10-23T00:10:19;14.77;;;6.47;;
20482;SDS011;10400;53.198;6.592;2022-10-23T00:12:46;19.00;;;6.15;;
20482;SDS011;10400;53.198;6.592;2022-10-23T00:15:13;14.93;;;6.50;;
20482;SDS011;10400;53.198;6.592;2022-10-23T00:17:39;20.48;;;6.72;;
20482;SDS011;10400;53.198;6.592;2022-10-23T00:20:06;17.20;;;6.53;;
20482;SDS011;10400;53.198;6.592;2022-10-23T00:22:33;17.75;;;6.88;;
20482;SDS011;10400;53.198;6.592;2022-10-23T00:24:59;12.13;;;5.95;;
20482;SDS011;10400;53.198;6.592;2022-10-23T00:27:25;14.63;;;6.03;;
20482;SDS011;10400;53.198;6.592;2022-10-23T00:29:51;14.27;;;5.90;;
20482;SDS011;10400;53.198;6.592;2022-10-23T00:32:17;13.27;;;5.75;;
20482;SDS011;10400;53.198;6.592;2022-10-23T00:34:43;9.02;;;5.10;;
20482;SDS011;10400;53.198;6.592;2022-10-23T00:37:08;12.77;;;5.57;;
20482;SDS011;10400;53.198;6.592;2022-10-23T00:39:34;9.48;;;4.90;;
20482;SDS011;10400;53.198;6.592;2022-10-23T00:42:00;14.18;;;5.35;;
20482;SDS011;10400;53.198;6.592;2022-10-23T00:46:54;13.43;;;5.78;;
20482;SDS011;10400;53.198;6.592;2022-10-23T00:49:21;13.32;;;6.07;;
20482;SDS011;10400;53.198;6.592;2022-10-23T00:51:51;16.33;;;6.35;;
20482;SDS011;10400;53.198;6.592;2022-10-23T00:54:21;13.05;;;7.00;;
20482;SDS011;10400;53.198;6.592;2022-10-23T00:56:49;14.07;;;6.82;;
20482;SDS011;10400;53.198;6.592;2022-10-23T00:59:17;16.88;;;6.40;;
20482;SDS011;10400;53.198;6.592;2022-10-23T01:01:44;10.00;;;6.32;;
20482;SDS011;10400;53.198;6.592;2022-10-23T01:04:09;15.05;;;7.47;;
20482;SDS011;10400;53.198;6.592;2022-10-23T01:06:40;11.05;;;7.05;;
20482;SDS011;10400;53.198;6.592;2022-10-23T01:11:48;13.80;;;8.05;;
20482;SDS011;10400;53.198;6.592;2022-10-23T01:17:27;11.93;;;8.35;;
20482;SDS011;10400;53.198;6.592;2022-10-23T01:28:29;17.70;;;10.30;;
20482;SDS011;10400;53.198;6.592;2022-10-23T01:31:00;15.93;;;8.77;;
20482;SDS011;10400;53.198;6.592;2022-10-23T01:33:32;17.35;;;8.95;;
20482;SDS011;10400;53.198;6.592;2022-10-23T01:36:05;20.85;;;9.23;;
20482;SDS011;10400;53.198;6.592;2022-10-23T01:41:23;16.27;;;9.00;;
20482;SDS011;10400;53.198;6.592;2022-10-23T01:44:06;13.10;;;6.70;;
20482;SDS011;10400;53.198;6.592;2022-10-23T01:46:37;11.23;;;5.88;;
20482;SDS011;10400;53.198;6.592;2022-10-23T01:49:04;12.18;;;5.85;;
20482;SDS011;10400;53.198;6.592;2022-10-23T01:51:33;9.02;;;5.38;;
20482;SDS011;10400;53.198;6.592;2022-10-23T01:54:03;13.63;;;5.70;;
20482;SDS011;10400;53.198;6.592;2022-10-23T01:56:32;8.02;;;5.75;;
20482;SDS011;10400;53.198;6.592;2022-10-23T01:59:02;10.27;;;5.22;;
20482;SDS011;10400;53.198;6.592;2022-10-23T02:01:32;7.35;;;5.60;;
20482;SDS011;10400;53.198;6.592;2022-10-23T02:04:01;9.45;;;5.10;;
20482;SDS011;10400;53.198;6.592;2022-10-23T02:06:31;9.70;;;5.65;;
20482;SDS011;10400;53.198;6.592;2022-10-23T02:08:56;9.85;;;5.80;;
20482;SDS011;10400;53.198;6.592;2022-10-23T02:11:22;12.10;;;6.15;;
20482;SDS011;10400;53.198;6.592;2022-10-23T02:16:29;7.68;;;5.75;;
20482;SDS011;10400;53.198;6.592;2022-10-23T02:21:36;16.30;;;6.72;;
20482;SDS011;10400;53.198;6.592;2022-10-23T02:24:10;11.68;;;6.50;;
20482;SDS011;10400;53.198;6.592;2022-10-23T02:26:38;11.00;;;6.80;;
20482;SDS011;10400;53.198;6.592;2022-10-23T02:31:35;12.85;;;7.20;;
20482;SDS011;10400;53.198;6.592;2022-10-23T02:34:00;9.90;;;7.68;;
20482;SDS011;10400;53.198;6.592;2022-10-23T02:36:26;14.27;;;7.10;;
20482;SDS011;10400;53.198;6.592;2022-10-23T02:38:52;15.65;;;8.43;;
20482;SDS011;10400;53.198;6.592;2022-10-23T02:44:10;7.95;;;6.00;;
20482;SDS011;10400;53.198;6.592;2022-10-23T02:47:16;27.35;;;7.78;;
20482;SDS011;10400;53.198;6.592;2022-10-23T02:52:55;11.02;;;7.30;;
20482;SDS011;10400;53.198;6.592;2022-10-23T02:55:50;9.98;;;6.22;;
20482;SDS011;10400;53.198;6.592;2022-10-23T03:01:07;17.20;;;6.85;;
20482;SDS011;10400;53.198;6.592;2022-10-23T03:03:57;17.13;;;6.78;;
20482;SDS011;10400;53.198;6.592;2022-10-23T03:06:26;26.85;;;6.63;;
20482;SDS011;10400;53.198;6.592;2022-10-23T03:08:53;14.77;;;6.82;;
20482;SDS011;10400;53.198;6.592;2022-10-23T03:11:23;12.20;;;7.25;;
20482;SDS011;10400;53.198;6.592;2022-10-23T03:13:49;41.28;;;7.70;;
20482;SDS011;10400;53.198;6.592;2022-10-23T03:16:15;26.38;;;7.53;;
20482;SDS011;10400;53.198;6.592;2022-10-23T03:18:41;22.15;;;7.68;;
20482;SDS011;10400;53.198;6.592;2022-10-23T03:21:06;10.50;;;6.65;;
20482;SDS011;10400;53.198;6.592;2022-10-23T03:23:32;16.50;;;7.78;;
20482;SDS011;10400;53.198;6.592;2022-10-23T03:25:58;14.98;;;8.10;;
20482;SDS011;10400;53.198;6.592;2022-10-23T03:28:24;17.88;;;7.68;;
20482;SDS011;10400;53.198;6.592;2022-10-23T03:30:49;11.73;;;8.10;;
20482;SDS011;10400;53.198;6.592;2022-10-23T03:33:15;16.88;;;8.48;;
20482;SDS011;10400;53.198;6.592;2022-10-23T03:35:41;16.27;;;9.00;;
20482;SDS011;10400;53.198;6.592;2022-10-23T03:38:07;16.60;;;8.95;;
20482;SDS011;10400;53.198;6.592;2022-10-23T03:40:32;11.70;;;8.45;;
20482;SDS011;10400;53.198;6.592;2022-10-23T03:42:58;11.38;;;9.10;;
20482;SDS011;10400;53.198;6.592;2022-10-23T03:45:23;13.90;;;8.63;;
20482;SDS011;10400;53.198;6.592;2022-10-23T03:47:49;10.82;;;8.13;;
20482;SDS011;10400;53.198;6.592;2022-10-23T03:50:16;12.00;;;8.23;;
20482;SDS011;10400;53.198;6.592;2022-10-23T03:52:42;10.43;;;8.38;;
20482;SDS011;10400;53.198;6.592;2022-10-23T03:55:09;11.30;;;8.38;;
20482;SDS011;10400;53.198;6.592;2022-10-23T03:57:35;11.65;;;8.30;;
20482;SDS011;10400;53.198;6.592;2022-10-23T04:00:01;18.70;;;8.77;;
20482;SDS011;10400;53.198;6.592;2022-10-23T04:02:27;21.85;;;10.25;;
20482;SDS011;10400;53.198;6.592;2022-10-23T04:04:53;14.50;;;9.68;;
20482;SDS011;10400;53.198;6.592;2022-10-23T04:07:19;15.10;;;9.35;;
20482;SDS011;10400;53.198;6.592;2022-10-23T04:09:45;11.57;;;8.98;;
20482;SDS011;10400;53.198;6.592;2022-10-23T04:12:10;14.88;;;8.93;;
20482;SDS011;10400;53.198;6.592;2022-10-23T04:14:36;10.27;;;8.85;;
20482;SDS011;10400;53.198;6.592;2022-10-23T04:17:02;12.27;;;9.35;;
20482;SDS011;10400;53.198;6.592;2022-10-23T04:19:27;12.20;;;9.32;;
20482;SDS011;10400;53.198;6.592;2022-10-23T04:21:53;16.33;;;9.90;;
20482;SDS011;10400;53.198;6.592;2022-10-23T04:24:18;15.95;;;10.07;;
20482;SDS011;10400;53.198;6.592;2022-10-23T04:26:44;14.93;;;10.57;;
20482;SDS011;10400;53.198;6.592;2022-10-23T04:29:10;17.88;;;12.00;;
20482;SDS011;10400;53.198;6.592;2022-10-23T04:31:35;18.20;;;11.65;;
20482;SDS011;10400;53.198;6.592;2022-10-23T04:34:01;16.55;;;11.63;;
20482;SDS011;10400;53.198;6.592;2022-10-23T04:36:27;14.88;;;10.68;;
20482;SDS011;10400;53.198;6.592;2022-10-23T04:38:52;15.85;;;12.13;;
20482;SDS011;10400;53.198;6.592;2022-10-23T04:41:18;18.98;;;12.07;;
20482;SDS011;10400;53.198;6.592;2022-10-23T04:43:44;17.75;;;13.07;;
20482;SDS011;10400;53.198;6.592;2022-10-23T04:46:09;18.08;;;13.23;;
20482;SDS011;10400;53.198;6.592;2022-10-23T04:48:35;20.52;;;13.57;;
20482;SDS011;10400;53.198;6.592;2022-10-23T04:51:01;16.65;;;12.75;;
20482;SDS011;10400;53.198;6.592;2022-10-23T04:53:29;19.33;;;14.57;;
20482;SDS011;10400;53.198;6.592;2022-10-23T04:55:55;18.45;;;13.65;;
20482;SDS011;10400;53.198;6.592;2022-10-23T04:58:22;18.77;;;13.48;;
20482;SDS011;10400;53.198;6.592;2022-10-23T05:00:50;21.98;;;14.23;;
20482;SDS011;10400;53.198;6.592;2022-10-23T05:03:16;19.27;;;13.35;;
20482;SDS011;10400;53.198;6.592;2022-10-23T05:05:43;19.88;;;13.88;;
20482;SDS011;10400;53.198;6.592;2022-10-23T05:08:10;22.58;;;14.15;;
20482;SDS011;10400;53.198;6.592;2022-10-23T05:10:36;22.50;;;13.73;;
20482;SDS011;10400;53.198;6.592;2022-10-23T05:13:01;18.90;;;13.32;;
20482;SDS011;10400;53.198;6.592;2022-10-23T05:15:27;23.13;;;13.55;;
20482;SDS011;10400;53.198;6.592;2022-10-23T05:17:54;19.60;;;13.70;;
20482;SDS011;10400;53.198;6.592;2022-10-23T05:20:24;21.52;;;13.18;;
20482;SDS011;10400;53.198;6.592;2022-10-23T05:22:54;27.17;;;14.02;;
20482;SDS011;10400;53.198;6.592;2022-10-23T05:25:22;22.10;;;14.55;;
20482;SDS011;10400;53.198;6.592;2022-10-23T05:27:47;19.95;;;15.13;;
20482;SDS011;10400;53.198;6.592;2022-10-23T05:30:13;22.15;;;15.00;;
20482;SDS011;10400;53.198;6.592;2022-10-23T05:32:39;27.23;;;15.93;;
20482;SDS011;10400;53.198;6.592;2022-10-23T05:35:08;27.73;;;14.95;;
20482;SDS011;10400;53.198;6.592;2022-10-23T05:37:37;25.67;;;15.57;;
20482;SDS011;10400;53.198;6.592;2022-10-23T05:40:05;27.40;;;15.63;;
20482;SDS011;10400;53.198;6.592;2022-10-23T05:42:31;22.25;;;15.70;;
20482;SDS011;10400;53.198;6.592;2022-10-23T05:44:57;28.48;;;16.27;;
20482;SDS011;10400;53.198;6.592;2022-10-23T05:47:22;24.02;;;15.38;;
20482;SDS011;10400;53.198;6.592;2022-10-23T05:49:48;28.80;;;16.30;;
20482;SDS011;10400;53.198;6.592;2022-10-23T05:52:14;23.75;;;15.95;;
20482;SDS011;10400;53.198;6.592;2022-10-23T05:54:39;27.67;;;16.48;;
20482;SDS011;10400;53.198;6.592;2022-10-23T05:57:06;26.17;;;16.10;;
20482;SDS011;10400;53.198;6.592;2022-10-23T05:59:31;31.60;;;16.75;;
20482;SDS011;10400;53.198;6.592;2022-10-23T06:01:57;24.98;;;15.45;;
20482;SDS011;10400;53.198;6.592;2022-10-23T06:04:22;23.98;;;16.58;;
20482;SDS011;10400;53.198;6.592;2022-10-23T06:06:48;28.45;;;15.55;;
20482;SDS011;10400;53.198;6.592;2022-10-23T06:09:14;28.77;;;16.63;;
20482;SDS011;10400;53.198;6.592;2022-10-23T06:11:40;27.42;;;16.00;;
20482;SDS011;10400;53.198;6.592;2022-10-23T06:14:06;25.63;;;15.63;;
20482;SDS011;10400;53.198;6.592;2022-10-23T06:16:32;24.45;;;17.00;;
20482;SDS011;10400;53.198;6.592;2022-10-23T06:18:57;28.80;;;16.05;;
20482;SDS011;10400;53.198;6.592;2022-10-23T06:21:24;26.27;;;16.23;;
20482;SDS011;10400;53.198;6.592;2022-10-23T06:23:50;29.00;;;16.15;;
20482;SDS011;10400;53.198;6.592;2022-10-23T06:26:16;27.95;;;16.50;;
20482;SDS011;10400;53.198;6.592;2022-10-23T06:28:43;31.98;;;16.08;;
20482;SDS011;10400;53.198;6.592;2022-10-23T06:31:10;24.95;;;15.93;;
20482;SDS011;10400;53.198;6.592;2022-10-23T06:33:37;26.65;;;17.35;;
20482;SDS011;10400;53.198;6.592;2022-10-23T06:36:03;25.10;;;16.08;;
20482;SDS011;10400;53.198;6.592;2022-10-23T06:38:30;29.23;;;16.08;;
20482;SDS011;10400;53.198;6.592;2022-10-23T06:41:01;28.48;;;16.17;;
20482;SDS011;10400;53.198;6.592;2022-10-23T06:43:27;25.63;;;16.50;;
20482;SDS011;10400;53.198;6.592;2022-10-23T06:45:53;28.63;;;17.23;;
20482;SDS011;10400;53.198;6.592;2022-10-23T06:48:19;28.83;;;16.13;;
20482;SDS011;10400;53.198;6.592;2022-10-23T06:50:44;29.20;;;16.85;;
20482;SDS011;10400;53.198;6.592;2022-10-23T06:53:10;29.40;;;15.77;;
20482;SDS011;10400;53.198;6.592;2022-10-23T06:55:36;26.75;;;16.42;;
20482;SDS011;10400;53.198;6.592;2022-10-23T06:58:04;30.13;;;16.13;;
20482;SDS011;10400;53.198;6.592;2022-10-23T07:00:34;29.58;;;16.20;;
20482;SDS011;10400;53.198;6.592;2022-10-23T07:03:03;24.15;;;16.00;;
20482;SDS011;10400;53.198;6.592;2022-10-23T07:05:30;26.20;;;16.65;;
20482;SDS011;10400;53.198;6.592;2022-10-23T07:07:56;27.25;;;16.23;;
20482;SDS011;10400;53.198;6.592;2022-10-23T07:10:22;24.50;;;15.70;;
20482;SDS011;10400;53.198;6.592;2022-10-23T07:12:48;26.60;;;15.90;;
20482;SDS011;10400;53.198;6.592;2022-10-23T07:15:14;26.80;;;15.73;;
20482;SDS011;10400;53.198;6.592;2022-10-23T07:17:40;24.05;;;14.98;;
20482;SDS011;10400;53.198;6.592;2022-10-23T07:20:06;25.42;;;16.48;;
20482;SDS011;10400;53.198;6.592;2022-10-23T07:22:32;30.73;;;16.38;;
20482;SDS011;10400;53.198;6.592;2022-10-23T07:24:58;25.38;;;15.05;;
20482;SDS011;10400;53.198;6.592;2022-10-23T07:27:23;23.20;;;15.05;;
20482;SDS011;10400;53.198;6.592;2022-10-23T07:29:50;23.42;;;14.43;;
20482;SDS011;10400;53.198;6.592;2022-10-23T07:32:16;25.63;;;15.63;;
20482;SDS011;10400;53.198;6.592;2022-10-23T07:34:42;26.10;;;15.00;;
20482;SDS011;10400;53.198;6.592;2022-10-23T07:37:08;24.38;;;14.45;;
20482;SDS011;10400;53.198;6.592;2022-10-23T07:39:34;28.02;;;14.98;;
20482;SDS011;10400;53.198;6.592;2022-10-23T07:41:59;22.80;;;14.43;;
20482;SDS011;10400;53.198;6.592;2022-10-23T07:44:25;25.63;;;14.77;;
20482;SDS011;10400;53.198;6.592;2022-10-23T07:46:51;22.42;;;14.00;;
20482;SDS011;10400;53.198;6.592;2022-10-23T07:49:17;26.77;;;14.38;;
20482;SDS011;10400;53.198;6.592;2022-10-23T07:51:43;25.75;;;13.93;;
20482;SDS011;10400;53.198;6.592;2022-10-23T07:54:09;24.58;;;14.25;;
20482;SDS011;10400;53.198;6.592;2022-10-23T07:56:36;23.05;;;13.45;;
20482;SDS011;10400;53.198;6.592;2022-10-23T07:59:02;19.33;;;13.82;;
20482;SDS011;10400;53.198;6.592;2022-10-23T08:01:32;19.92;;;12.65;;
20482;SDS011;10400;53.198;6.592;2022-10-23T08:04:00;19.30;;;12.52;;
20482;SDS011;10400;53.198;6.592;2022-10-23T08:06:26;21.58;;;12.82;;
20482;SDS011;10400;53.198;6.592;2022-10-23T08:08:52;23.83;;;13.07;;
20482;SDS011;10400;53.198;6.592;2022-10-23T08:11:19;24.55;;;12.88;;
20482;SDS011;10400;53.198;6.592;2022-10-23T08:13:54;22.38;;;12.88;;
20482;SDS011;10400;53.198;6.592;2022-10-23T08:16:21;26.40;;;13.25;;
20482;SDS011;10400;53.198;6.592;2022-10-23T08:18:47;21.88;;;12.40;;
20482;SDS011;10400;53.198;6.592;2022-10-23T08:21:14;22.88;;;13.18;;
20482;SDS011;10400;53.198;6.592;2022-10-23T08:23:39;22.15;;;12.93;;
20482;SDS011;10400;53.198;6.592;2022-10-23T08:26:05;29.17;;;13.50;;
20482;SDS011;10400;53.198;6.592;2022-10-23T08:28:32;20.27;;;13.40;;
20482;SDS011;10400;53.198;6.592;2022-10-23T08:30:58;19.83;;;12.48;;
20482;SDS011;10400;53.198;6.592;2022-10-23T08:33:30;19.90;;;12.70;;
20482;SDS011;10400;53.198;6.592;2022-10-23T08:35:55;21.42;;;13.18;;
20482;SDS011;10400;53.198;6.592;2022-10-23T08:38:21;18.95;;;11.80;;
20482;SDS011;10400;53.198;6.592;2022-10-23T08:40:47;21.67;;;12.07;;
20482;SDS011;10400;53.198;6.592;2022-10-23T08:43:16;21.35;;;13.05;;
20482;SDS011;10400;53.198;6.592;2022-10-23T08:45:51;17.85;;;11.90;;
20482;SDS011;10400;53.198;6.592;2022-10-23T08:51:17;22.52;;;12.32;;
20482;SDS011;10400;53.198;6.592;2022-10-23T08:57:10;22.38;;;12.23;;
20482;SDS011;10400;53.198;6.592;2022-10-23T08:59:46;23.73;;;12.20;;
20482;SDS011;10400;53.198;6.592;2022-10-23T09:02:20;19.30;;;11.90;;
20482;SDS011;10400;53.198;6.592;2022-10-23T09:04:49;18.92;;;12.18;;
20482;SDS011;10400;53.198;6.592;2022-10-23T09:13:18;21.58;;;11.38;;
20482;SDS011;10400;53.198;6.592;2022-10-23T09:15:50;17.15;;;11.77;;
20482;SDS011;10400;53.198;6.592;2022-10-23T09:18:23;17.88;;;12.52;;
20482;SDS011;10400;53.198;6.592;2022-10-23T09:20:49;16.80;;;10.98;;
20482;SDS011;10400;53.198;6.592;2022-10-23T09:23:17;18.17;;;10.35;;
20482;SDS011;10400;53.198;6.592;2022-10-23T09:25:46;18.35;;;10.50;;
20482;SDS011;10400;53.198;6.592;2022-10-23T09:28:26;20.60;;;11.80;;
20482;SDS011;10400;53.198;6.592;2022-10-23T09:31:05;20.98;;;10.00;;
20482;SDS011;10400;53.198;6.592;2022-10-23T09:33:33;18.20;;;10.15;;
20482;SDS011;10400;53.198;6.592;2022-10-23T09:36:05;14.38;;;8.95;;
20482;SDS011;10400;53.198;6.592;2022-10-23T09:41:10;17.70;;;9.65;;
20482;SDS011;10400;53.198;6.592;2022-10-23T09:43:43;18.42;;;9.00;;
20482;SDS011;10400;53.198;6.592;2022-10-23T09:46:08;14.65;;;7.72;;
20482;SDS011;10400;53.198;6.592;2022-10-23T09:48:36;14.95;;;8.50;;
20482;SDS011;10400;53.198;6.592;2022-10-23T09:51:11;16.02;;;8.30;;
20482;SDS011;10400;53.198;6.592;2022-10-23T10:01:45;13.38;;;7.07;;
20482;SDS011;10400;53.198;6.592;2022-10-23T10:04:29;13.48;;;7.47;;
20482;SDS011;10400;53.198;6.592;2022-10-23T10:06:57;18.33;;;7.57;;
20482;SDS011;10400;53.198;6.592;2022-10-23T10:09:23;15.45;;;7.13;;
20482;SDS011;10400;53.198;6.592;2022-10-23T10:11:50;12.18;;;7.30;;
20482;SDS011;10400;53.198;6.592;2022-10-23T10:22:25;10.70;;;6.25;;
20482;SDS011;10400;53.198;6.592;2022-10-23T10:30:24;13.82;;;6.68;;
20482;SDS011;10400;53.198;6.592;2022-10-23T10:33:07;12.68;;;6.80;;
20482;SDS011;10400;53.198;6.592;2022-10-23T10:49:48;10.48;;;6.03;;
20482;SDS011;10400;53.198;6.592;2022-10-23T10:52:22;10.27;;;5.88;;
20482;SDS011;10400;53.198;6.592;2022-10-23T10:57:43;11.55;;;5.72;;
20482;SDS011;10400;53.198;6.592;2022-10-23T11:00:13;9.82;;;6.07;;
20482;SDS011;10400;53.198;6.592;2022-10-23T11:02:46;12.05;;;6.40;;
20482;SDS011;10400;53.198;6.592;2022-10-23T11:08:15;11.50;;;6.00;;
20482;SDS011;10400;53.198;6.592;2022-10-23T11:10:46;13.48;;;5.88;;
20482;SDS011;10400;53.198;6.592;2022-10-23T11:13:17;14.98;;;6.20;;
20482;SDS011;10400;53.198;6.592;2022-10-23T11:15:50;10.23;;;6.00;;
20482;SDS011;10400;53.198;6.592;2022-10-23T11:18:22;12.85;;;6.40;;
20482;SDS011;10400;53.198;6.592;2022-10-23T11:36:59;10.27;;;4.93;;
20482;SDS011;10400;53.198;6.592;2022-10-23T11:39:28;9.10;;;4.60;;
20482;SDS011;10400;53.198;6.592;2022-10-23T11:42:27;7.53;;;4.82;;
20482;SDS011;10400;53.198;6.592;2022-10-23T11:44:53;11.18;;;4.55;;
20482;SDS011;10400;53.198;6.592;2022-10-23T11:47:35;10.35;;;5.00;;
20482;SDS011;10400;53.198;6.592;2022-10-23T11:55:31;10.88;;;4.88;;
20482;SDS011;10400;53.198;6.592;2022-10-23T12:00:39;6.57;;;4.75;;
20482;SDS011;10400;53.198;6.592;2022-10-23T12:03:19;10.38;;;4.70;;
20482;SDS011;10400;53.198;6.592;2022-10-23T12:05:55;9.43;;;4.30;;
20482;SDS011;10400;53.198;6.592;2022-10-23T12:08:24;9.30;;;4.53;;
20482;SDS011;10400;53.198;6.592;2022-10-23T12:10:52;9.70;;;4.35;;
20482;SDS011;10400;53.198;6.592;2022-10-23T12:16:03;9.80;;;4.28;;
20482;SDS011;10400;53.198;6.592;2022-10-23T12:18:31;12.27;;;4.57;;
20482;SDS011;10400;53.198;6.592;2022-10-23T12:20:58;11.40;;;5.22;;
20482;SDS011;10400;53.198;6.592;2022-10-23T12:23:37;11.68;;;4.40;;
20482;SDS011;10400;53.198;6.592;2022-10-23T12:26:34;8.77;;;4.30;;
20482;SDS011;10400;53.198;6.592;2022-10-23T12:31:46;7.95;;;4.15;;
20482;SDS011;10400;53.198;6.592;2022-10-23T12:39:32;11.25;;;4.18;;
20482;SDS011;10400;53.198;6.592;2022-10-23T12:42:10;12.82;;;4.40;;
20482;SDS011;10400;53.198;6.592;2022-10-23T12:44:42;8.88;;;4.50;;
20482;SDS011;10400;53.198;6.592;2022-10-23T12:47:13;7.43;;;4.10;;
20482;SDS011;10400;53.198;6.592;2022-10-23T12:49:47;8.52;;;4.20;;
20482;SDS011;10400;53.198;6.592;2022-10-23T12:52:15;12.02;;;4.00;;
20482;SDS011;10400;53.198;6.592;2022-10-23T12:54:42;14.40;;;4.18;;
20482;SDS011;10400;53.198;6.592;2022-10-23T12:57:41;9.85;;;4.40;;
20482;SDS011;10400;53.198;6.592;2022-10-23T13:00:09;6.97;;;3.90;;
20482;SDS011;10400;53.198;6.592;2022-10-23T13:02:39;10.45;;;4.00;;
20482;SDS011;10400;53.198;6.592;2022-10-23T13:05:06;7.25;;;3.72;;
20482;SDS011;10400;53.198;6.592;2022-10-23T13:07:34;7.88;;;4.30;;
20482;SDS011;10400;53.198;6.592;2022-10-23T13:10:06;10.65;;;3.70;;
20482;SDS011;10400;53.198;6.592;2022-10-23T13:12:35;8.27;;;4.05;;
20482;SDS011;10400;53.198;6.592;2022-10-23T13:17:39;9.30;;;3.92;;
20482;SDS011;10400;53.198;6.592;2022-10-23T13:22:46;10.55;;;3.75;;
20482;SDS011;10400;53.198;6.592;2022-10-23T13:25:23;10.85;;;4.13;;
20482;SDS011;10400;53.198;6.592;2022-10-23T13:30:33;8.98;;;4.07;;
20482;SDS011;10400;53.198;6.592;2022-10-23T13:34:05;9.95;;;3.58;;
20482;SDS011;10400;53.198;6.592;2022-10-23T13:38:45;9.85;;;3.50;;
20482;SDS011;10400;53.198;6.592;2022-10-23T13:41:37;9.90;;;3.40;;
20482;SDS011;10400;53.198;6.592;2022-10-23T13:44:11;11.15;;;3.47;;
20482;SDS011;10400;53.198;6.592;2022-10-23T13:46:39;9.20;;;3.60;;
20482;SDS011;10400;53.198;6.592;2022-10-23T13:49:05;7.63;;;3.17;;
20482;SDS011;10400;53.198;6.592;2022-10-23T13:51:35;6.95;;;3.53;;
20482;SDS011;10400;53.198;6.592;2022-10-23T13:54:05;6.63;;;3.50;;
20482;SDS011;10400;53.198;6.592;2022-10-23T13:56:36;10.15;;;3.38;;
20482;SDS011;10400;53.198;6.592;2022-10-23T13:59:02;7.65;;;3.90;;
20482;SDS011;10400;53.198;6.592;2022-10-23T14:01:29;7.28;;;3.95;;
20482;SDS011;10400;53.198;6.592;2022-10-23T14:03:58;6.95;;;3.40;;
20482;SDS011;10400;53.198;6.592;2022-10-23T14:06:24;12.55;;;3.47;;
20482;SDS011;10400;53.198;6.592;2022-10-23T14:08:50;7.90;;;3.25;;
20482;SDS011;10400;53.198;6.592;2022-10-23T14:11:16;8.02;;;3.70;;
20482;SDS011;10400;53.198;6.592;2022-10-23T14:13:43;9.55;;;3.47;;
20482;SDS011;10400;53.198;6.592;2022-10-23T14:16:13;6.30;;;3.50;;
20482;SDS011;10400;53.198;6.592;2022-10-23T14:18:40;6.32;;;4.20;;
20482;SDS011;10400;53.198;6.592;2022-10-23T14:21:07;11.20;;;3.00;;
20482;SDS011;10400;53.198;6.592;2022-10-23T14:23:36;8.38;;;3.42;;
20482;SDS011;10400;53.198;6.592;2022-10-23T14:26:10;7.07;;;3.58;;
20482;SDS011;10400;53.198;6.592;2022-10-23T14:28:44;7.75;;;3.40;;
20482;SDS011;10400;53.198;6.592;2022-10-23T14:31:11;7.28;;;3.70;;
20482;SDS011;10400;53.198;6.592;2022-10-23T14:33:38;8.60;;;3.17;;
20482;SDS011;10400;53.198;6.592;2022-10-23T14:36:04;8.23;;;3.10;;
20482;SDS011;10400;53.198;6.592;2022-10-23T14:38:30;10.32;;;3.38;;
20482;SDS011;10400;53.198;6.592;2022-10-23T14:41:01;7.13;;;2.63;;
20482;SDS011;10400;53.198;6.592;2022-10-23T14:43:27;6.25;;;3.00;;
20482;SDS011;10400;53.198;6.592;2022-10-23T14:45:53;6.90;;;3.25;;
20482;SDS011;10400;53.198;6.592;2022-10-23T14:48:19;6.63;;;2.67;;
20482;SDS011;10400;53.198;6.592;2022-10-23T14:50:45;6.78;;;2.88;;
20482;SDS011;10400;53.198;6.592;2022-10-23T14:53:13;6.43;;;3.05;;
20482;SDS011;10400;53.198;6.592;2022-10-23T14:55:39;5.72;;;2.90;;
20482;SDS011;10400;53.198;6.592;2022-10-23T14:58:05;9.07;;;2.67;;
20482;SDS011;10400;53.198;6.592;2022-10-23T15:00:31;7.32;;;3.00;;
20482;SDS011;10400;53.198;6.592;2022-10-23T15:02:57;7.68;;;2.80;;
20482;SDS011;10400;53.198;6.592;2022-10-23T15:05:24;6.47;;;3.00;;
20482;SDS011;10400;53.198;6.592;2022-10-23T15:07:49;7.97;;;3.10;;
20482;SDS011;10400;53.198;6.592;2022-10-23T15:10:15;8.43;;;3.50;;
20482;SDS011;10400;53.198;6.592;2022-10-23T15:12:41;7.53;;;2.55;;
20482;SDS011;10400;53.198;6.592;2022-10-23T15:15:06;5.82;;;2.72;;
20482;SDS011;10400;53.198;6.592;2022-10-23T15:17:34;11.02;;;3.22;;
20482;SDS011;10400;53.198;6.592;2022-10-23T15:20:02;8.18;;;2.90;;
20482;SDS011;10400;53.198;6.592;2022-10-23T15:22:28;8.90;;;3.00;;
20482;SDS011;10400;53.198;6.592;2022-10-23T15:24:54;7.72;;;3.03;;
20482;SDS011;10400;53.198;6.592;2022-10-23T15:27:20;7.25;;;3.17;;
20482;SDS011;10400;53.198;6.592;2022-10-23T15:29:46;8.55;;;3.30;;
20482;SDS011;10400;53.198;6.592;2022-10-23T15:32:12;10.93;;;2.78;;
20482;SDS011;10400;53.198;6.592;2022-10-23T15:34:40;6.38;;;3.15;;
20482;SDS011;10400;53.198;6.592;2022-10-23T15:37:07;9.20;;;3.50;;
20482;SDS011;10400;53.198;6.592;2022-10-23T15:39:33;7.57;;;3.00;;
20482;SDS011;10400;53.198;6.592;2022-10-23T15:42:00;10.60;;;3.47;;
20482;SDS011;10400;53.198;6.592;2022-10-23T15:44:28;8.65;;;3.25;;
20482;SDS011;10400;53.198;6.592;2022-10-23T15:46:55;8.50;;;3.08;;
20482;SDS011;10400;53.198;6.592;2022-10-23T15:49:22;10.98;;;3.38;;
20482;SDS011;10400;53.198;6.592;2022-10-23T16:03:05;6.03;;;3.10;;
20482;SDS011;10400;53.198;6.592;2022-10-23T16:05:34;10.40;;;3.17;;
20482;SDS011;10400;53.198;6.592;2022-10-23T16:08:00;9.38;;;3.08;;
20482;SDS011;10400;53.198;6.592;2022-10-23T16:10:26;7.43;;;3.38;;
20482;SDS011;10400;53.198;6.592;2022-10-23T16:12:53;9.07;;;3.08;;
20482;SDS011;10400;53.198;6.592;2022-10-23T16:15:19;7.25;;;3.05;;
20482;SDS011;10400;53.198;6.592;2022-10-23T16:17:44;4.78;;;2.83;;
20482;SDS011;10400;53.198;6.592;2022-10-23T16:20:10;6.57;;;3.58;;
20482;SDS011;10400;53.198;6.592;2022-10-23T16:22:35;9.85;;;3.40;;
20482;SDS011;10400;53.198;6.592;2022-10-23T16:25:01;7.60;;;3.35;;
20482;SDS011;10400;53.198;6.592;2022-10-23T16:27:27;6.97;;;3.30;;
20482;SDS011;10400;53.198;6.592;2022-10-23T16:29:53;9.90;;;3.35;;
20482;SDS011;10400;53.198;6.592;2022-10-23T16:32:18;9.25;;;3.47;;
20482;SDS011;10400;53.198;6.592;2022-10-23T16:34:44;7.05;;;3.38;;
20482;SDS011;10400;53.198;6.592;2022-10-23T16:37:10;7.75;;;3.15;;
20482;SDS011;10400;53.198;6.592;2022-10-23T16:39:35;7.85;;;3.35;;
20482;SDS011;10400;53.198;6.592;2022-10-23T16:42:02;7.30;;;3.13;;
20482;SDS011;10400;53.198;6.592;2022-10-23T16:44:28;7.28;;;3.30;;
20482;SDS011;10400;53.198;6.592;2022-10-23T16:46:54;6.00;;;2.97;;
20482;SDS011;10400;53.198;6.592;2022-10-23T16:49:20;8.23;;;3.20;;
20482;SDS011;10400;53.198;6.592;2022-10-23T16:51:45;6.72;;;3.70;;
20482;SDS011;10400;53.198;6.592;2022-10-23T16:54:11;6.85;;;3.30;;
20482;SDS011;10400;53.198;6.592;2022-10-23T16:56:38;10.77;;;3.38;;
20482;SDS011;10400;53.198;6.592;2022-10-23T16:59:04;6.25;;;3.15;;
20482;SDS011;10400;53.198;6.592;2022-10-23T17:01:30;8.05;;;3.67;;
20482;SDS011;10400;53.198;6.592;2022-10-23T17:03:57;8.77;;;3.63;;
20482;SDS011;10400;53.198;6.592;2022-10-23T17:06:25;7.43;;;3.25;;
20482;SDS011;10400;53.198;6.592;2022-10-23T17:08:52;9.95;;;3.15;;